sensor_id;sensor_type;location;lat;lon;timestamp;temperature;humidity
42187;DHT22;27858;51.414;0.018;2022-09-12T04:00:20;17.10;99.90
42187;DHT22;27858;51.414;0.018;2022-09-12T04:02:47;17.20;99.90
42187;DHT22;27858;51.414;0.018;2022-09-12T04:05:14;17.20;99.90
42187;DHT22;27858;51.414;0.018;2022-09-12T04:07:41;17.20;99.90
42187;DHT22;27858;51.414;0.018;2022-09-12T04:10:08;17.20;99.90
42187;DHT22;27858;51.414;0.018;2022-09-12T04:12:35;17.20;99.90
42187;DHT22;27858;51.414;0.018;2022-09-12T04:15:02;17.20;99.90
42187;DHT22;27858;51.414;0.018;2022-09-12T04:17:29;17.10;99.90
42187;DHT22;27858;51.414;0.018;2022-09-12T04:19:55;17.10;99.90
42187;DHT22;27858;51.414;0.018;2022-09-12T04:22:22;17.10;99.90
42187;DHT22;27858;51.414;0.018;2022-09-12T04:24:49;17.00;99.90
42187;DHT22;27858;51.414;0.018;2022-09-12T04:27:16;16.90;99.90
42187;DHT22;27858;51.414;0.018;2022-09-12T04:29:42;17.00;99.90
42187;DHT22;27858;51.414;0.018;2022-09-12T04:32:09;17.00;99.90
42187;DHT22;27858;51.414;0.018;2022-09-12T04:34:36;17.00;99.90
42187;DHT22;27858;51.414;0.018;2022-09-12T04:37:03;16.90;99.90
42187;DHT22;27858;51.414;0.018;2022-09-12T04:39:30;17.00;99.90
42187;DHT22;27858;51.414;0.018;2022-09-12T04:41:57;17.00;99.90
42187;DHT22;27858;51.414;0.018;2022-09-12T04:44:23;16.90;99.90
42187;DHT22;27858;51.414;0.018;2022-09-12T04:46:50;16.90;99.90
42187;DHT22;27858;51.414;0.018;2022-09-12T04:49:18;16.90;99.90
42187;DHT22;27858;51.414;0.018;2022-09-12T04:51:45;16.90;99.90
42187;DHT22;27858;51.414;0.018;2022-09-12T04:54:15;16.80;99.90
42187;DHT22;27858;51.414;0.018;2022-09-12T04:56:44;16.90;99.90
42187;DHT22;27858;51.414;0.018;2022-09-12T04:59:12;16.90;99.90
42187;DHT22;27858;51.414;0.018;2022-09-12T05:01:40;16.90;99.90
42187;DHT22;27858;51.414;0.018;2022-09-12T05:04:09;16.90;99.90
42187;DHT22;27858;51.414;0.018;2022-09-12T05:06:37;16.80;99.90
42187;DHT22;27858;51.414;0.018;2022-09-12T05:09:05;16.80;99.90
42187;DHT22;27858;51.414;0.018;2022-09-12T05:11:36;16.80;99.90
42187;DHT22;27858;51.414;0.018;2022-09-12T05:14:23;16.80;99.90
42187;DHT22;27858;51.414;0.018;2022-09-12T05:16:50;16.80;99.90
42187;DHT22;27858;51.414;0.018;2022-09-12T05:19:17;16.80;99.90
42187;DHT22;27858;51.414;0.018;2022-09-12T05:21:44;16.80;99.90
42187;DHT22;27858;51.414;0.018;2022-09-12T05:24:10;16.80;99.90
42187;DHT22;27858;51.414;0.018;2022-09-12T05:26:37;16.80;99.90
42187;DHT22;27858;51.414;0.018;2022-09-12T05:29:04;16.80;99.90
42187;DHT22;27858;51.414;0.018;2022-09-12T05:31:33;16.80;99.90
42187;DHT22;27858;51.414;0.018;2022-09-12T05:34:00;16.90;99.90
42187;DHT22;27858;51.414;0.018;2022-09-12T05:36:28;16.80;99.90
42187;DHT22;27858;51.414;0.018;2022-09-12T05:38:55;16.80;99.90
42187;DHT22;27858;51.414;0.018;2022-09-12T05:41:28;16.80;99.90
42187;DHT22;27858;51.414;0.018;2022-09-12T05:43:58;16.80;99.90
42187;DHT22;27858;51.414;0.018;2022-09-12T05:46:27;16.90;99.90
42187;DHT22;27858;51.414;0.018;2022-09-12T05:48:55;16.90;99.90
42187;DHT22;27858;51.414;0.018;2022-09-12T05:51:24;16.90;99.90
42187;DHT22;27858;51.414;0.018;2022-09-12T05:53:57;16.80;99.90
42187;DHT22;27858;51.414;0.018;2022-09-12T05:56:29;16.90;99.90
42187;DHT22;27858;51.414;0.018;2022-09-12T05:59:01;16.80;99.90
42187;DHT22;27858;51.414;0.018;2022-09-12T06:01:29;16.90;99.90
42187;DHT22;27858;51.414;0.018;2022-09-12T06:03:59;16.90;99.90
42187;DHT22;27858;51.414;0.018;2022-09-12T06:06:27;17.00;99.90
42187;DHT22;27858;51.414;0.018;2022-09-12T06:09:02;17.00;99.90
42187;DHT22;27858;51.414;0.018;2022-09-12T06:11:31;17.00;99.90
42187;DHT22;27858;51.414;0.018;2022-09-12T06:13:59;17.00;99.90
42187;DHT22;27858;51.414;0.018;2022-09-12T06:16:28;17.10;99.90
42187;DHT22;27858;51.414;0.018;2022-09-12T06:18:58;17.10;99.90
42187;DHT22;27858;51.414;0.018;2022-09-12T06:21:26;17.20;99.90
42187;DHT22;27858;51.414;0.018;2022-09-12T06:23:54;17.20;99.90
42187;DHT22;27858;51.414;0.018;2022-09-12T06:26:21;17.20;99.90
42187;DHT22;27858;51.414;0.018;2022-09-12T06:28:52;17.20;99.90
42187;DHT22;27858;51.414;0.018;2022-09-12T06:31:24;17.30;99.90
42187;DHT22;27858;51.414;0.018;2022-09-12T06:33:52;17.40;99.90
42187;DHT22;27858;51.414;0.018;2022-09-12T06:36:20;17.50;99.90
42187;DHT22;27858;51.414;0.018;2022-09-12T06:38:56;17.60;99.90
42187;DHT22;27858;51.414;0.018;2022-09-12T06:41:24;17.70;99.90
42187;DHT22;27858;51.414;0.018;2022-09-12T06:43:51;17.80;99.90
42187;DHT22;27858;51.414;0.018;2022-09-12T06:46:19;17.90;99.90
42187;DHT22;27858;51.414;0.018;2022-09-12T06:48:46;18.00;99.90
42187;DHT22;27858;51.414;0.018;2022-09-12T06:51:14;18.10;99.90
42187;DHT22;27858;51.414;0.018;2022-09-12T06:53:43;18.20;99.90
42187;DHT22;27858;51.414;0.018;2022-09-12T06:56:13;18.30;99.90
42187;DHT22;27858;51.414;0.018;2022-09-12T06:58:41;18.30;99.90
42187;DHT22;27858;51.414;0.018;2022-09-12T07:01:16;18.40;99.90
42187;DHT22;27858;51.414;0.018;2022-09-12T07:03:48;18.40;99.90
42187;DHT22;27858;51.414;0.018;2022-09-12T07:06:17;18.50;99.90
42187;DHT22;27858;51.414;0.018;2022-09-12T07:08:45;18.50;99.90
42187;DHT22;27858;51.414;0.018;2022-09-12T07:11:13;18.60;99.90
42187;DHT22;27858;51.414;0.018;2022-09-12T07:13:44;18.60;99.90
42187;DHT22;27858;51.414;0.018;2022-09-12T07:16:12;18.60;99.90
42187;DHT22;27858;51.414;0.018;2022-09-12T07:18:49;18.70;99.90
42187;DHT22;27858;51.414;0.018;2022-09-12T07:21:19;18.70;99.90
42187;DHT22;27858;51.414;0.018;2022-09-12T07:23:46;18.80;99.90
42187;DHT22;27858;51.414;0.018;2022-09-12T07:26:15;18.80;99.90
42187;DHT22;27858;51.414;0.018;2022-09-12T07:28:43;18.90;99.90
42187;DHT22;27858;51.414;0.018;2022-09-12T07:31:12;19.00;99.90
42187;DHT22;27858;51.414;0.018;2022-09-12T07:33:41;19.00;99.90
42187;DHT22;27858;51.414;0.018;2022-09-12T07:36:13;19.10;99.90
42187;DHT22;27858;51.414;0.018;2022-09-12T07:38:41;19.10;99.90
42187;DHT22;27858;51.414;0.018;2022-09-12T07:41:18;19.10;99.90
42187;DHT22;27858;51.414;0.018;2022-09-12T07:43:47;19.20;99.90
42187;DHT22;27858;51.414;0.018;2022-09-12T07:46:14;19.20;99.90
42187;DHT22;27858;51.414;0.018;2022-09-12T07:48:41;19.20;99.90
42187;DHT22;27858;51.414;0.018;2022-09-12T07:51:09;19.30;99.90
42187;DHT22;27858;51.414;0.018;2022-09-12T07:53:38;19.30;99.90
42187;DHT22;27858;51.414;0.018;2022-09-12T07:56:07;19.40;99.90
42187;DHT22;27858;51.414;0.018;2022-09-12T07:58:37;19.50;99.90
42187;DHT22;27858;51.414;0.018;2022-09-12T08:03:33;19.60;99.90
42187;DHT22;27858;51.414;0.018;2022-09-12T08:06:12;19.70;99.90
42187;DHT22;27858;51.414;0.018;2022-09-12T08:08:39;19.80;90.50
42187;DHT22;27858;51.414;0.018;2022-09-12T08:11:09;19.90;94.40
42187;DHT22;27858;51.414;0.018;2022-09-12T08:13:37;19.90;81.20
42187;DHT22;27858;51.414;0.018;2022-09-12T08:16:12;20.00;65.60
42187;DHT22;27858;51.414;0.018;2022-09-12T08:18:40;20.00;60.10
42187;DHT22;27858;51.414;0.018;2022-09-12T08:21:12;20.00;56.60
42187;DHT22;27858;51.414;0.018;2022-09-12T08:23:39;20.00;53.00
42187;DHT22;27858;51.414;0.018;2022-09-12T08:26:06;20.00;63.70
42187;DHT22;27858;51.414;0.018;2022-09-12T08:28:34;20.10;60.10
42187;DHT22;27858;51.414;0.018;2022-09-12T08:31:12;20.10;59.00
42187;DHT22;27858;51.414;0.018;2022-09-12T08:33:42;20.10;59.90
42187;DHT22;27858;51.414;0.018;2022-09-12T08:38:39;20.20;50.00
42187;DHT22;27858;51.414;0.018;2022-09-12T08:41:29;20.30;57.10
42187;DHT22;27858;51.414;0.018;2022-09-12T08:52:05;20.70;35.10
42187;DHT22;27858;51.414;0.018;2022-09-12T08:54:32;20.80;32.30
42187;DHT22;27858;51.414;0.018;2022-09-12T08:57:04;20.90;32.30
42187;DHT22;27858;51.414;0.018;2022-09-12T08:59:43;21.00;28.80
42187;DHT22;27858;51.414;0.018;2022-09-12T09:05:16;21.00;26.40
42187;DHT22;27858;51.414;0.018;2022-09-12T09:10:44;21.10;24.50
42187;DHT22;27858;51.414;0.018;2022-09-12T09:16:41;21.30;21.20
42187;DHT22;27858;51.414;0.018;2022-09-12T09:19:16;21.50;21.30
42187;DHT22;27858;51.414;0.018;2022-09-12T09:24:18;21.50;5.30
42187;DHT22;27858;51.414;0.018;2022-09-12T09:27:13;21.60;2.10
42187;DHT22;27858;51.414;0.018;2022-09-12T09:29:57;21.60;1.00
42187;DHT22;27858;51.414;0.018;2022-09-12T09:32:31;21.60;1.00
42187;DHT22;27858;51.414;0.018;2022-09-12T09:35:04;21.70;1.00
42187;DHT22;27858;51.414;0.018;2022-09-12T09:40:31;21.80;1.00
42187;DHT22;27858;51.414;0.018;2022-09-12T09:43:22;21.90;3.90
42187;DHT22;27858;51.414;0.018;2022-09-12T09:45:50;22.00;1.00
42187;DHT22;27858;51.414;0.018;2022-09-12T09:48:35;21.90;1.00
42187;DHT22;27858;51.414;0.018;2022-09-12T09:51:04;22.00;5.10
42187;DHT22;27858;51.414;0.018;2022-09-12T09:53:37;22.00;1.00
42187;DHT22;27858;51.414;0.018;2022-09-12T09:56:14;22.00;1.00
42187;DHT22;27858;51.414;0.018;2022-09-12T09:58:48;22.00;1.00
42187;DHT22;27858;51.414;0.018;2022-09-12T10:01:16;22.10;1.00
42187;DHT22;27858;51.414;0.018;2022-09-12T10:03:54;22.10;1.00
42187;DHT22;27858;51.414;0.018;2022-09-12T10:06:24;22.20;1.00
42187;DHT22;27858;51.414;0.018;2022-09-12T10:09:06;22.20;1.00
42187;DHT22;27858;51.414;0.018;2022-09-12T10:11:43;22.20;1.00
42187;DHT22;27858;51.414;0.018;2022-09-12T10:14:28;22.30;1.00
42187;DHT22;27858;51.414;0.018;2022-09-12T10:16:56;22.40;1.00
42187;DHT22;27858;51.414;0.018;2022-09-12T10:19:33;22.50;1.00
42187;DHT22;27858;51.414;0.018;2022-09-12T10:22:05;22.50;1.00
42187;DHT22;27858;51.414;0.018;2022-09-12T10:24:39;22.50;1.00
42187;DHT22;27858;51.414;0.018;2022-09-12T10:29:41;22.70;1.00
42187;DHT22;27858;51.414;0.018;2022-09-12T10:32:36;22.90;1.00
42187;DHT22;27858;51.414;0.018;2022-09-12T10:35:07;23.00;1.00
42187;DHT22;27858;51.414;0.018;2022-09-12T10:40:36;23.20;1.00
42187;DHT22;27858;51.414;0.018;2022-09-12T10:46:26;23.40;1.00
42187;DHT22;27858;51.414;0.018;2022-09-12T10:49:26;23.50;1.00
42187;DHT22;27858;51.414;0.018;2022-09-12T10:51:54;23.60;1.00
42187;DHT22;27858;51.414;0.018;2022-09-12T10:54:24;23.90;1.00
42187;DHT22;27858;51.414;0.018;2022-09-12T10:57:31;24.00;1.00
42187;DHT22;27858;51.414;0.018;2022-09-12T11:00:14;24.20;1.00
42187;DHT22;27858;51.414;0.018;2022-09-12T11:03:05;24.10;1.00
42187;DHT22;27858;51.414;0.018;2022-09-12T11:08:32;24.30;1.00
42187;DHT22;27858;51.414;0.018;2022-09-12T11:19:26;24.30;1.00
42187;DHT22;27858;51.414;0.018;2022-09-12T11:24:36;24.10;1.00
42187;DHT22;27858;51.414;0.018;2022-09-12T11:30:11;24.30;1.00
42187;DHT22;27858;51.414;0.018;2022-09-12T11:32:46;24.50;1.00
42187;DHT22;27858;51.414;0.018;2022-09-12T11:35:29;24.70;1.00
42187;DHT22;27858;51.414;0.018;2022-09-12T11:38:13;24.80;1.00
42187;DHT22;27858;51.414;0.018;2022-09-12T11:43:33;25.00;1.00
42187;DHT22;27858;51.414;0.018;2022-09-12T11:46:22;25.20;1.00
42187;DHT22;27858;51.414;0.018;2022-09-12T11:49:05;25.00;1.00
42187;DHT22;27858;51.414;0.018;2022-09-12T11:54:45;25.10;1.00
42187;DHT22;27858;51.414;0.018;2022-09-12T11:57:27;25.20;1.00
42187;DHT22;27858;51.414;0.018;2022-09-12T12:00:06;25.10;1.00
42187;DHT22;27858;51.414;0.018;2022-09-12T12:03:08;25.10;1.00
42187;DHT22;27858;51.414;0.018;2022-09-12T12:06:10;24.90;1.00
42187;DHT22;27858;51.414;0.018;2022-09-12T12:08:40;25.00;1.00
42187;DHT22;27858;51.414;0.018;2022-09-12T12:11:09;25.00;1.00
42187;DHT22;27858;51.414;0.018;2022-09-12T12:13:48;24.80;1.00
42187;DHT22;27858;51.414;0.018;2022-09-12T12:16:32;24.70;1.00
42187;DHT22;27858;51.414;0.018;2022-09-12T12:19:03;24.60;1.00
42187;DHT22;27858;51.414;0.018;2022-09-12T12:21:39;24.70;1.00
42187;DHT22;27858;51.414;0.018;2022-09-12T12:26:40;24.90;1.00
42187;DHT22;27858;51.414;0.018;2022-09-12T12:34:39;25.10;1.00
42187;DHT22;27858;51.414;0.018;2022-09-12T12:47:43;24.90;99.90
42187;DHT22;27858;51.414;0.018;2022-09-12T12:50:22;25.00;99.90
42187;DHT22;27858;51.414;0.018;2022-09-12T12:55:35;25.40;99.90
42187;DHT22;27858;51.414;0.018;2022-09-12T12:58:38;25.40;99.90
42187;DHT22;27858;51.414;0.018;2022-09-12T13:01:15;25.50;99.90
42187;DHT22;27858;51.414;0.018;2022-09-12T13:03:45;25.60;99.90
42187;DHT22;27858;51.414;0.018;2022-09-12T13:09:24;25.80;99.90
42187;DHT22;27858;51.414;0.018;2022-09-12T13:14:46;26.10;99.90
42187;DHT22;27858;51.414;0.018;2022-09-12T13:17:30;26.20;99.90
42187;DHT22;27858;51.414;0.018;2022-09-12T13:20:27;26.30;99.90
42187;DHT22;27858;51.414;0.018;2022-09-12T13:22:56;26.30;99.90
42187;DHT22;27858;51.414;0.018;2022-09-12T13:25:51;26.40;99.90
42187;DHT22;27858;51.414;0.018;2022-09-12T13:28:18;26.40;99.90
42187;DHT22;27858;51.414;0.018;2022-09-12T13:30:57;26.80;99.90
42187;DHT22;27858;51.414;0.018;2022-09-12T13:33:45;26.50;99.90
42187;DHT22;27858;51.414;0.018;2022-09-12T13:39:02;26.90;99.90
42187;DHT22;27858;51.414;0.018;2022-09-12T13:44:23;27.20;99.90
42187;DHT22;27858;51.414;0.018;2022-09-12T13:46:51;27.40;99.90
42187;DHT22;27858;51.414;0.018;2022-09-12T13:49:39;27.30;99.90
42187;DHT22;27858;51.414;0.018;2022-09-12T13:52:08;27.40;99.90
42187;DHT22;27858;51.414;0.018;2022-09-12T13:54:43;27.50;99.90
42187;DHT22;27858;51.414;0.018;2022-09-12T13:57:38;27.50;99.90
42187;DHT22;27858;51.414;0.018;2022-09-12T14:00:15;27.50;99.90
42187;DHT22;27858;51.414;0.018;2022-09-12T14:02:46;27.50;99.90
42187;DHT22;27858;51.414;0.018;2022-09-12T14:05:21;27.40;99.90
42187;DHT22;27858;51.414;0.018;2022-09-12T14:10:41;26.80;99.90
42187;DHT22;27858;51.414;0.018;2022-09-12T14:13:33;26.60;99.90
42187;DHT22;27858;51.414;0.018;2022-09-12T14:15:59;26.40;99.90
42187;DHT22;27858;51.414;0.018;2022-09-12T14:18:29;26.50;99.90
42187;DHT22;27858;51.414;0.018;2022-09-12T14:23:48;26.30;99.90
42187;DHT22;27858;51.414;0.018;2022-09-12T14:26:16;26.30;99.90
42187;DHT22;27858;51.414;0.018;2022-09-12T14:28:47;26.20;99.90
42187;DHT22;27858;51.414;0.018;2022-09-12T14:31:22;26.30;99.90
42187;DHT22;27858;51.414;0.018;2022-09-12T14:33:50;26.30;99.90
42187;DHT22;27858;51.414;0.018;2022-09-12T14:36:38;26.40;99.90
42187;DHT22;27858;51.414;0.018;2022-09-12T14:39:18;26.40;99.90
42187;DHT22;27858;51.414;0.018;2022-09-12T14:41:48;26.30;99.90
42187;DHT22;27858;51.414;0.018;2022-09-12T14:44:22;26.30;99.90
42187;DHT22;27858;51.414;0.018;2022-09-12T14:46:49;26.60;99.90
42187;DHT22;27858;51.414;0.018;2022-09-12T14:52:04;26.80;99.90
42187;DHT22;27858;51.414;0.018;2022-09-12T14:57:02;26.80;99.90
42187;DHT22;27858;51.414;0.018;2022-09-12T14:59:38;26.70;99.90
42187;DHT22;27858;51.414;0.018;2022-09-12T15:05:14;26.80;99.90
42187;DHT22;27858;51.414;0.018;2022-09-12T15:07:49;26.70;99.90
42187;DHT22;27858;51.414;0.018;2022-09-12T15:10:27;26.60;99.90
42187;DHT22;27858;51.414;0.018;2022-09-12T15:15:36;26.40;99.90
42187;DHT22;27858;51.414;0.018;2022-09-12T15:18:04;26.40;99.90
42187;DHT22;27858;51.414;0.018;2022-09-12T15:20:36;26.30;99.90
42187;DHT22;27858;51.414;0.018;2022-09-12T15:23:06;26.10;99.90
42187;DHT22;27858;51.414;0.018;2022-09-12T15:25:36;26.00;99.90
42187;DHT22;27858;51.414;0.018;2022-09-12T15:28:19;26.10;99.90
42187;DHT22;27858;51.414;0.018;2022-09-12T15:30:48;26.10;99.90
42187;DHT22;27858;51.414;0.018;2022-09-12T15:33:21;26.10;99.90
42187;DHT22;27858;51.414;0.018;2022-09-12T15:35:50;26.20;99.90
42187;DHT22;27858;51.414;0.018;2022-09-12T15:38:18;25.90;99.90
42187;DHT22;27858;51.414;0.018;2022-09-12T15:40:52;25.70;99.90
42187;DHT22;27858;51.414;0.018;2022-09-12T15:43:22;25.90;99.90
42187;DHT22;27858;51.414;0.018;2022-09-12T15:45:51;25.70;99.90
42187;DHT22;27858;51.414;0.018;2022-09-12T15:48:18;25.70;99.90
42187;DHT22;27858;51.414;0.018;2022-09-12T15:50:46;25.60;99.90
42187;DHT22;27858;51.414;0.018;2022-09-12T15:53:15;25.50;99.90
42187;DHT22;27858;51.414;0.018;2022-09-12T15:55:42;25.40;99.90
42187;DHT22;27858;51.414;0.018;2022-09-12T15:58:09;25.30;99.90
42187;DHT22;27858;51.414;0.018;2022-09-12T16:00:36;25.30;99.90
42187;DHT22;27858;51.414;0.018;2022-09-12T16:03:03;25.20;99.90
42187;DHT22;27858;51.414;0.018;2022-09-12T16:05:30;25.20;99.90
42187;DHT22;27858;51.414;0.018;2022-09-12T16:07:57;25.10;99.90
42187;DHT22;27858;51.414;0.018;2022-09-12T16:10:27;24.90;99.90
42187;DHT22;27858;51.414;0.018;2022-09-12T16:12:54;25.00;99.90
42187;DHT22;27858;51.414;0.018;2022-09-12T16:15:23;24.80;99.90
42187;DHT22;27858;51.414;0.018;2022-09-12T16:17:50;24.60;99.90
42187;DHT22;27858;51.414;0.018;2022-09-12T16:20:18;24.60;99.90
42187;DHT22;27858;51.414;0.018;2022-09-12T16:22:45;24.70;99.90
42187;DHT22;27858;51.414;0.018;2022-09-12T16:25:12;24.70;99.90
42187;DHT22;27858;51.414;0.018;2022-09-12T16:27:39;24.70;99.90
42187;DHT22;27858;51.414;0.018;2022-09-12T16:30:07;24.70;99.90
42187;DHT22;27858;51.414;0.018;2022-09-12T16:32:35;24.80;99.90
42187;DHT22;27858;51.414;0.018;2022-09-12T16:35:02;24.90;99.90
42187;DHT22;27858;51.414;0.018;2022-09-12T16:37:30;24.90;99.90
42187;DHT22;27858;51.414;0.018;2022-09-12T16:39:57;24.80;99.90
42187;DHT22;27858;51.414;0.018;2022-09-12T16:42:24;24.90;99.90
42187;DHT22;27858;51.414;0.018;2022-09-12T16:44:50;25.20;99.90
42187;DHT22;27858;51.414;0.018;2022-09-12T16:47:17;25.20;99.90
42187;DHT22;27858;51.414;0.018;2022-09-12T16:49:45;25.30;99.90
42187;DHT22;27858;51.414;0.018;2022-09-12T16:52:12;25.40;99.90
42187;DHT22;27858;51.414;0.018;2022-09-12T16:54:42;25.30;99.90
42187;DHT22;27858;51.414;0.018;2022-09-12T16:57:12;25.30;99.90
42187;DHT22;27858;51.414;0.018;2022-09-12T16:59:38;25.20;99.90
42187;DHT22;27858;51.414;0.018;2022-09-12T17:02:06;25.00;99.90
42187;DHT22;27858;51.414;0.018;2022-09-12T17:04:33;24.90;99.90
42187;DHT22;27858;51.414;0.018;2022-09-12T17:07:01;24.70;99.90
42187;DHT22;27858;51.414;0.018;2022-09-12T17:09:28;24.50;99.90
42187;DHT22;27858;51.414;0.018;2022-09-12T17:11:55;24.50;99.90
42187;DHT22;27858;51.414;0.018;2022-09-12T17:14:23;24.40;99.90
42187;DHT22;27858;51.414;0.018;2022-09-12T17:16:50;24.30;99.90
42187;DHT22;27858;51.414;0.018;2022-09-12T17:19:25;24.30;99.90
42187;DHT22;27858;51.414;0.018;2022-09-12T17:21:54;24.20;99.90
42187;DHT22;27858;51.414;0.018;2022-09-12T17:24:21;24.10;99.90
42187;DHT22;27858;51.414;0.018;2022-09-12T17:26:49;24.10;99.90
42187;DHT22;27858;51.414;0.018;2022-09-12T17:29:16;24.10;99.90
42187;DHT22;27858;51.414;0.018;2022-09-12T17:31:44;24.00;99.90
42187;DHT22;27858;51.414;0.018;2022-09-12T17:34:12;24.00;99.90
42187;DHT22;27858;51.414;0.018;2022-09-12T17:36:40;23.90;99.90
42187;DHT22;27858;51.414;0.018;2022-09-12T17:39:11;23.90;99.90
42187;DHT22;27858;51.414;0.018;2022-09-12T17:41:39;23.80;99.90
42187;DHT22;27858;51.414;0.018;2022-09-12T17:44:10;23.80;99.90
42187;DHT22;27858;51.414;0.018;2022-09-12T17:46:37;23.70;99.90
42187;DHT22;27858;51.414;0.018;2022-09-12T17:49:09;23.70;99.90
42187;DHT22;27858;51.414;0.018;2022-09-12T17:51:36;23.70;1.00
42187;DHT22;27858;51.414;0.018;2022-09-12T17:54:09;23.70;99.90
42187;DHT22;27858;51.414;0.018;2022-09-12T17:56:37;23.70;1.00
42187;DHT22;27858;51.414;0.018;2022-09-12T17:59:05;23.70;1.00
42187;DHT22;27858;51.414;0.018;2022-09-12T18:01:33;23.60;1.00
42187;DHT22;27858;51.414;0.018;2022-09-12T18:04:22;23.50;1.00
42187;DHT22;27858;51.414;0.018;2022-09-12T18:06:49;23.40;1.00
42187;DHT22;27858;51.414;0.018;2022-09-12T18:09:18;23.40;1.00
42187;DHT22;27858;51.414;0.018;2022-09-12T18:11:46;23.30;1.00
42187;DHT22;27858;51.414;0.018;2022-09-12T18:14:14;23.30;1.00
42187;DHT22;27858;51.414;0.018;2022-09-12T18:16:41;23.30;1.00
42187;DHT22;27858;51.414;0.018;2022-09-12T18:19:09;23.20;1.00
42187;DHT22;27858;51.414;0.018;2022-09-12T18:21:37;23.20;1.00
42187;DHT22;27858;51.414;0.018;2022-09-12T18:24:04;23.10;1.00
42187;DHT22;27858;51.414;0.018;2022-09-12T18:26:32;23.10;1.00
42187;DHT22;27858;51.414;0.018;2022-09-12T18:28:59;23.00;1.00
42187;DHT22;27858;51.414;0.018;2022-09-12T18:31:27;23.00;1.00
42187;DHT22;27858;51.414;0.018;2022-09-12T18:33:55;23.00;1.00
42187;DHT22;27858;51.414;0.018;2022-09-12T18:36:22;23.00;1.00
42187;DHT22;27858;51.414;0.018;2022-09-12T18:38:49;22.90;1.00
42187;DHT22;27858;51.414;0.018;2022-09-12T18:41:18;22.90;1.00
42187;DHT22;27858;51.414;0.018;2022-09-12T18:43:45;22.80;1.00
42187;DHT22;27858;51.414;0.018;2022-09-12T18:46:15;22.80;1.00
42187;DHT22;27858;51.414;0.018;2022-09-12T18:48:43;22.70;1.00
42187;DHT22;27858;51.414;0.018;2022-09-12T18:53:41;22.60;1.00
42187;DHT22;27858;51.414;0.018;2022-09-12T18:56:10;22.50;1.00
42187;DHT22;27858;51.414;0.018;2022-09-12T18:58:40;22.40;1.00
42187;DHT22;27858;51.414;0.018;2022-09-12T19:01:34;22.30;1.00
42187;DHT22;27858;51.414;0.018;2022-09-12T19:04:05;22.30;1.00
42187;DHT22;27858;51.414;0.018;2022-09-12T19:06:37;22.20;1.00
42187;DHT22;27858;51.414;0.018;2022-09-12T19:09:08;22.20;1.00
42187;DHT22;27858;51.414;0.018;2022-09-12T19:11:37;22.20;1.00
42187;DHT22;27858;51.414;0.018;2022-09-12T19:14:05;22.20;1.00
42187;DHT22;27858;51.414;0.018;2022-09-12T19:16:32;22.20;1.00
42187;DHT22;27858;51.414;0.018;2022-09-12T19:18:59;22.20;1.00
42187;DHT22;27858;51.414;0.018;2022-09-12T19:21:29;22.20;1.00
42187;DHT22;27858;51.414;0.018;2022-09-12T19:24:00;22.20;1.00
42187;DHT22;27858;51.414;0.018;2022-09-12T19:26:31;22.10;1.00
42187;DHT22;27858;51.414;0.018;2022-09-12T19:28:59;22.10;1.00
42187;DHT22;27858;51.414;0.018;2022-09-12T19:31:28;22.10;1.00
42187;DHT22;27858;51.414;0.018;2022-09-12T19:34:03;22.20;1.00
42187;DHT22;27858;51.414;0.018;2022-09-12T19:36:31;22.20;1.00
42187;DHT22;27858;51.414;0.018;2022-09-12T19:39:17;22.20;1.00
42187;DHT22;27858;51.414;0.018;2022-09-12T19:41:45;22.20;1.00
42187;DHT22;27858;51.414;0.018;2022-09-12T19:44:12;22.10;1.00
42187;DHT22;27858;51.414;0.018;2022-09-12T19:46:39;22.10;1.00
42187;DHT22;27858;51.414;0.018;2022-09-12T19:49:09;22.10;1.00
42187;DHT22;27858;51.414;0.018;2022-09-12T19:51:36;22.10;1.00
42187;DHT22;27858;51.414;0.018;2022-09-12T19:54:05;22.10;1.00
42187;DHT22;27858;51.414;0.018;2022-09-12T19:56:33;22.10;1.00
42187;DHT22;27858;51.414;0.018;2022-09-12T19:59:00;22.10;1.00
42187;DHT22;27858;51.414;0.018;2022-09-12T20:01:27;22.10;1.00
42187;DHT22;27858;51.414;0.018;2022-09-12T20:03:55;22.10;1.00
42187;DHT22;27858;51.414;0.018;2022-09-12T20:06:23;22.10;1.00
42187;DHT22;27858;51.414;0.018;2022-09-12T20:08:50;22.10;1.00
42187;DHT22;27858;51.414;0.018;2022-09-12T20:11:18;22.00;1.00
42187;DHT22;27858;51.414;0.018;2022-09-12T20:13:46;22.00;1.00
42187;DHT22;27858;51.414;0.018;2022-09-12T20:16:15;21.90;1.00
42187;DHT22;27858;51.414;0.018;2022-09-12T20:18:50;21.80;1.00
42187;DHT22;27858;51.414;0.018;2022-09-12T20:21:19;21.80;1.00
42187;DHT22;27858;51.414;0.018;2022-09-12T20:23:47;21.80;1.00
42187;DHT22;27858;51.414;0.018;2022-09-12T20:26:14;21.70;1.00
42187;DHT22;27858;51.414;0.018;2022-09-12T20:28:41;21.70;1.00
42187;DHT22;27858;51.414;0.018;2022-09-12T20:31:13;21.70;1.00
42187;DHT22;27858;51.414;0.018;2022-09-12T20:33:41;21.60;1.00
42187;DHT22;27858;51.414;0.018;2022-09-12T20:36:15;21.60;1.00
42187;DHT22;27858;51.414;0.018;2022-09-12T20:38:52;21.60;1.00
42187;DHT22;27858;51.414;0.018;2022-09-12T20:41:23;21.70;1.00
42187;DHT22;27858;51.414;0.018;2022-09-12T20:43:54;21.60;1.00
42187;DHT22;27858;51.414;0.018;2022-09-12T20:46:23;21.60;1.00
42187;DHT22;27858;51.414;0.018;2022-09-12T20:48:51;21.60;1.00
42187;DHT22;27858;51.414;0.018;2022-09-12T20:51:19;21.60;1.00
42187;DHT22;27858;51.414;0.018;2022-09-12T20:53:46;21.60;1.00
42187;DHT22;27858;51.414;0.018;2022-09-12T20:56:14;21.60;1.00
42187;DHT22;27858;51.414;0.018;2022-09-12T20:58:40;21.50;1.00
42187;DHT22;27858;51.414;0.018;2022-09-12T21:01:10;21.50;1.00
42187;DHT22;27858;51.414;0.018;2022-09-12T21:03:39;21.50;1.00
42187;DHT22;27858;51.414;0.018;2022-09-12T21:06:07;21.50;1.00
42187;DHT22;27858;51.414;0.018;2022-09-12T21:08:35;21.40;1.00
42187;DHT22;27858;51.414;0.018;2022-09-12T21:11:02;21.40;1.00
42187;DHT22;27858;51.414;0.018;2022-09-12T21:13:29;21.40;1.00
42187;DHT22;27858;51.414;0.018;2022-09-12T21:16:13;21.30;1.00
42187;DHT22;27858;51.414;0.018;2022-09-12T21:18:41;21.30;1.00
42187;DHT22;27858;51.414;0.018;2022-09-12T21:21:10;21.30;1.00
42187;DHT22;27858;51.414;0.018;2022-09-12T21:23:37;21.30;1.00
42187;DHT22;27858;51.414;0.018;2022-09-12T21:26:04;21.30;1.00
42187;DHT22;27858;51.414;0.018;2022-09-12T21:28:31;21.20;1.00
42187;DHT22;27858;51.414;0.018;2022-09-12T21:30:59;21.20;1.00
42187;DHT22;27858;51.414;0.018;2022-09-12T21:33:26;21.20;1.00
42187;DHT22;27858;51.414;0.018;2022-09-12T21:36:00;21.20;1.00
42187;DHT22;27858;51.414;0.018;2022-09-12T21:38:28;21.20;1.00
42187;DHT22;27858;51.414;0.018;2022-09-12T21:41:07;21.10;1.00
42187;DHT22;27858;51.414;0.018;2022-09-12T21:43:37;21.10;1.00
42187;DHT22;27858;51.414;0.018;2022-09-12T21:46:05;21.10;1.00
42187;DHT22;27858;51.414;0.018;2022-09-12T21:48:33;21.00;1.00
42187;DHT22;27858;51.414;0.018;2022-09-12T21:51:00;20.90;1.00
42187;DHT22;27858;51.414;0.018;2022-09-12T21:53:27;20.90;1.90